createdAt,value
2022-09-24T00:00:12.909Z,17.61
2022-09-24T00:02:40.552Z,17.60
2022-09-24T00:05:08.909Z,17.60
2022-09-24T00:07:36.462Z,17.59
2022-09-24T00:10:06.054Z,17.59
2022-09-24T00:12:34.718Z,17.58
2022-09-24T00:15:03.406Z,17.56
2022-09-24T00:17:30.985Z,17.56
2022-09-24T00:19:58.549Z,17.55
2022-09-24T00:22:26.074Z,17.54
2022-09-24T00:25:11.063Z,17.53
2022-09-24T00:27:39.989Z,17.54
2022-09-24T00:30:08.478Z,17.53
2022-09-24T00:32:36.034Z,17.52
2022-09-24T00:35:03.639Z,17.52
2022-09-24T00:37:31.167Z,17.52
2022-09-24T00:39:58.687Z,17.51
2022-09-24T00:42:26.250Z,17.51
2022-09-24T00:44:56.081Z,17.50
2022-09-24T00:47:34.617Z,17.49
2022-09-24T00:50:09.107Z,17.49
2022-09-24T00:52:37.248Z,17.48
2022-09-24T00:55:05.049Z,17.48
2022-09-24T00:57:32.764Z,17.46
2022-09-24T01:00:01.799Z,17.46
2022-09-24T01:02:30.879Z,17.45
2022-09-24T01:04:58.442Z,17.46
2022-09-24T01:07:26.385Z,17.45
2022-09-24T01:09:53.957Z,17.45
2022-09-24T01:12:28.829Z,17.44
2022-09-24T01:15:06.309Z,17.44
2022-09-24T01:17:37.005Z,17.42
2022-09-24T01:20:39.705Z,17.43
2022-09-24T01:23:15.289Z,17.43
2022-09-24T01:25:46.873Z,17.43
2022-09-24T01:28:30.267Z,17.43
2022-09-24T01:31:00.516Z,17.42
2022-09-24T01:33:28.245Z,17.41
2022-09-24T01:35:56.888Z,17.42
2022-09-24T01:38:26.796Z,17.42
2022-09-24T01:40:54.432Z,17.41
2022-09-24T01:43:25.386Z,17.40
2022-09-24T01:45:52.938Z,17.39
2022-09-24T01:48:22.454Z,17.40
2022-09-24T01:50:52.786Z,17.40
2022-09-24T01:53:29.963Z,17.40
2022-09-24T01:55:59.877Z,17.40
2022-09-24T01:58:29.244Z,17.38
2022-09-24T02:00:58.976Z,17.38
2022-09-24T02:03:29.754Z,17.38
2022-09-24T02:05:59.585Z,17.37
2022-09-24T02:08:29.342Z,17.38
2022-09-24T02:10:58.642Z,17.38
2022-09-24T02:13:27.594Z,17.37
2022-09-24T02:15:56.532Z,17.36
2022-09-24T02:18:25.020Z,17.35
2022-09-24T02:20:54.217Z,17.36
2022-09-24T02:23:21.858Z,17.36
2022-09-24T02:25:51.550Z,17.35
2022-09-24T02:28:19.229Z,17.34
2022-09-24T02:30:48.541Z,17.34
2022-09-24T02:33:30.002Z,17.34
2022-09-24T02:35:59.005Z,17.34
2022-09-24T02:38:26.566Z,17.33
2022-09-24T02:40:54.531Z,17.34
2022-09-24T02:43:22.229Z,17.34
2022-09-24T02:45:49.759Z,17.33
2022-09-24T02:48:17.301Z,17.32
2022-09-24T02:50:44.849Z,17.32
2022-09-24T02:53:13.874Z,17.32
2022-09-24T02:55:41.412Z,17.32
2022-09-24T02:58:08.974Z,17.32
2022-09-24T03:00:36.573Z,17.31
2022-09-24T03:03:04.276Z,17.31
2022-09-24T03:05:31.928Z,17.30
2022-09-24T03:08:00.051Z,17.30
2022-09-24T03:10:29.024Z,17.30
2022-09-24T03:12:56.725Z,17.30
2022-09-24T03:15:24.282Z,17.29
2022-09-24T03:17:51.901Z,17.29
2022-09-24T03:20:19.421Z,17.30
2022-09-24T03:22:47.900Z,17.30
2022-09-24T03:25:15.579Z,17.29
2022-09-24T03:27:44.477Z,17.29
2022-09-24T03:30:30.557Z,17.29
2022-09-24T03:32:58.104Z,17.28
2022-09-24T03:35:25.662Z,17.28
2022-09-24T03:37:53.233Z,17.28
2022-09-24T03:40:20.830Z,17.28
2022-09-24T03:42:49.775Z,17.27
2022-09-24T03:45:17.533Z,17.27
2022-09-24T03:47:45.069Z,17.28
2022-09-24T03:50:12.639Z,17.27
2022-09-24T03:52:40.293Z,17.27
2022-09-24T03:55:08.757Z,17.26
2022-09-24T03:57:36.292Z,17.26
2022-09-24T04:00:05.819Z,17.27
2022-09-24T04:02:33.391Z,17.27
2022-09-24T04:05:01.002Z,17.26
2022-09-24T04:07:28.520Z,17.27
2022-09-24T04:09:56.106Z,17.26
2022-09-24T04:12:23.730Z,17.25
2022-09-24T04:14:51.281Z,17.25
2022-09-24T04:17:20.192Z,17.25
2022-09-24T04:19:47.725Z,17.25
2022-09-24T04:22:15.273Z,17.25
2022-09-24T04:24:42.799Z,17.24
2022-09-24T04:27:10.382Z,17.25
2022-09-24T04:29:38.006Z,17.24
2022-09-24T04:32:05.557Z,17.24
2022-09-24T04:34:34.488Z,17.24
2022-09-24T04:37:02.028Z,17.24
2022-09-24T04:39:29.558Z,17.24
2022-09-24T04:41:57.119Z,17.24
2022-09-24T04:44:24.684Z,17.23
2022-09-24T04:46:52.313Z,17.22
2022-09-24T04:49:19.935Z,17.22
2022-09-24T04:51:48.898Z,17.23
2022-09-24T04:54:18.099Z,17.21
2022-09-24T04:56:45.634Z,17.21
2022-09-24T04:59:13.186Z,17.21
2022-09-24T05:01:40.855Z,17.21
2022-09-24T05:04:08.556Z,17.21
2022-09-24T05:06:36.207Z,17.21
2022-09-24T05:09:08.931Z,17.21
2022-09-24T05:11:39.272Z,17.21
2022-09-24T05:14:07.148Z,17.21
2022-09-24T05:16:35.062Z,17.21
2022-09-24T05:19:04.801Z,17.20
2022-09-24T05:21:32.459Z,17.20
2022-09-24T05:24:00.173Z,17.20
2022-09-24T05:26:46.401Z,17.20
2022-09-24T05:29:14.044Z,17.21
2022-09-24T05:31:41.692Z,17.19
2022-09-24T05:34:09.317Z,17.19
2022-09-24T05:36:37.063Z,17.20
2022-09-24T05:39:04.875Z,17.19
2022-09-24T05:41:33.966Z,17.20
2022-09-24T05:44:01.985Z,17.18
2022-09-24T05:46:29.980Z,17.19
2022-09-24T05:48:57.877Z,17.19
2022-09-24T05:51:25.482Z,17.18
2022-09-24T05:53:53.004Z,17.19
2022-09-24T05:56:20.549Z,17.19
2022-09-24T05:58:50.964Z,17.19
2022-09-24T06:01:18.483Z,17.18
2022-09-24T06:03:46.031Z,17.19
2022-09-24T06:06:13.588Z,17.19
2022-09-24T06:08:41.352Z,17.18
2022-09-24T06:11:09.508Z,17.18
2022-09-24T06:13:37.059Z,17.19
2022-09-24T06:16:07.410Z,17.18
2022-09-24T06:18:35.550Z,17.17
2022-09-24T06:21:03.757Z,17.17
2022-09-24T06:23:31.473Z,17.17
2022-09-24T06:25:58.998Z,17.17
2022-09-24T06:28:26.547Z,17.17
2022-09-24T06:30:54.319Z,17.17
2022-09-24T06:33:23.347Z,17.16
2022-09-24T06:35:50.932Z,17.17
2022-09-24T06:38:19.042Z,17.16
2022-09-24T06:40:48.336Z,17.17
2022-09-24T06:43:18.161Z,17.17
2022-09-24T06:45:45.805Z,17.17
2022-09-24T06:48:14.049Z,17.16
2022-09-24T06:50:43.635Z,17.15
2022-09-24T06:53:11.365Z,17.15
2022-09-24T06:55:39.266Z,17.16
2022-09-24T06:58:07.806Z,17.14
2022-09-24T07:00:35.575Z,17.16
2022-09-24T07:03:03.317Z,17.16
2022-09-24T07:05:30.847Z,17.16
2022-09-24T07:07:59.737Z,17.15
2022-09-24T07:10:27.951Z,17.16
2022-09-24T07:12:55.538Z,17.14
2022-09-24T07:15:23.157Z,17.15
2022-09-24T07:17:50.868Z,17.14
2022-09-24T07:20:18.966Z,17.15
2022-09-24T07:22:46.488Z,17.14
2022-09-24T07:25:15.426Z,17.15
2022-09-24T07:27:43.084Z,17.15
2022-09-24T07:30:13.622Z,17.15
2022-09-24T07:32:41.165Z,17.15
2022-09-24T07:35:09.094Z,17.15
2022-09-24T07:37:36.621Z,17.14
2022-09-24T07:40:04.268Z,17.15
2022-09-24T07:42:33.196Z,17.13
2022-09-24T07:45:00.877Z,17.14
2022-09-24T07:47:28.469Z,17.14
2022-09-24T07:49:55.998Z,17.15
2022-09-24T07:52:23.574Z,17.15
2022-09-24T07:54:52.258Z,17.14
2022-09-24T07:57:19.824Z,17.15
2022-09-24T07:59:48.697Z,17.15
2022-09-24T08:02:17.220Z,17.15
2022-09-24T08:04:44.831Z,17.14
2022-09-24T08:07:12.532Z,17.14
2022-09-24T08:09:40.076Z,17.14
2022-09-24T08:12:07.901Z,17.13
2022-09-24T08:14:35.428Z,17.12
2022-09-24T08:17:04.340Z,17.12
2022-09-24T08:19:33.192Z,17.13
2022-09-24T08:22:00.802Z,17.12
2022-09-24T08:24:28.497Z,17.12
2022-09-24T08:26:56.051Z,17.12
2022-09-24T08:29:23.590Z,17.13
2022-09-24T08:31:51.206Z,17.13
2022-09-24T08:34:20.152Z,17.13
2022-09-24T08:36:47.737Z,17.13
2022-09-24T08:39:15.547Z,17.14
2022-09-24T08:41:53.576Z,17.14
2022-09-24T08:44:36.652Z,17.14
2022-09-24T08:47:22.321Z,17.14
2022-09-24T08:49:53.901Z,17.14
2022-09-24T08:52:30.547Z,17.13
2022-09-24T08:54:58.093Z,17.14
2022-09-24T08:57:26.097Z,17.14
2022-09-24T08:59:53.858Z,17.14
2022-09-24T09:02:35.150Z,17.13
2022-09-24T09:05:07.835Z,17.14
2022-09-24T09:07:39.727Z,17.14
2022-09-24T09:10:10.828Z,17.14
2022-09-24T09:12:39.883Z,17.14
2022-09-24T09:15:08.258Z,17.15
2022-09-24T09:17:42.077Z,17.15
2022-09-24T09:20:17.014Z,17.14
2022-09-24T09:22:46.019Z,17.16
2022-09-24T09:25:21.777Z,17.15
2022-09-24T09:27:54.393Z,17.16
2022-09-24T09:30:22.729Z,17.14
2022-09-24T09:33:01.961Z,17.15
2022-09-24T09:35:35.384Z,17.14
2022-09-24T09:38:05.521Z,17.14
2022-09-24T09:40:35.097Z,17.13
2022-09-24T09:43:06.137Z,17.13
2022-09-24T09:45:37.093Z,17.12
2022-09-24T09:48:04.705Z,17.13
2022-09-24T09:50:36.812Z,17.13
2022-09-24T09:53:04.819Z,17.13
2022-09-24T09:55:33.224Z,17.12
2022-09-24T09:58:16.821Z,17.13
2022-09-24T10:00:46.916Z,17.12
2022-09-24T10:03:22.846Z,17.12
2022-09-24T10:05:57.957Z,17.11
2022-09-24T10:08:25.655Z,17.12
2022-09-24T10:10:55.237Z,17.13
2022-09-24T10:13:22.830Z,17.13
2022-09-24T10:15:50.912Z,17.12
2022-09-24T10:18:18.502Z,17.12
2022-09-24T10:20:48.131Z,17.13
2022-09-24T10:23:19.652Z,17.14
2022-09-24T10:25:51.659Z,17.16
2022-09-24T10:28:40.819Z,17.23
2022-09-24T10:31:12.470Z,17.29
2022-09-24T10:33:40.793Z,17.38
2022-09-24T10:36:09.415Z,17.44
2022-09-24T10:38:38.299Z,17.52
2022-09-24T10:41:15.936Z,17.60
2022-09-24T10:43:51.250Z,17.65
2022-09-24T10:46:28.550Z,17.73
2022-09-24T10:48:59.082Z,17.78
2022-09-24T10:51:30.808Z,17.83
2022-09-24T10:54:10.349Z,17.88
2022-09-24T10:56:43.559Z,17.92
2022-09-24T10:59:33.614Z,17.98
2022-09-24T11:02:10.550Z,18.02
2022-09-24T11:04:46.599Z,18.04
2022-09-24T11:07:27.161Z,18.08
2022-09-24T11:09:57.894Z,18.12
2022-09-24T11:12:27.845Z,18.14
2022-09-24T11:15:05.199Z,18.16
2022-09-24T11:17:34.261Z,18.18
2022-09-24T11:20:22.110Z,18.22
2022-09-24T11:22:57.585Z,18.26
2022-09-24T11:25:31.520Z,18.27
2022-09-24T11:28:05.683Z,18.29
2022-09-24T11:30:36.055Z,18.31
2022-09-24T11:33:11.698Z,18.33
2022-09-24T11:35:53.795Z,18.37
2022-09-24T11:38:23.700Z,18.38
2022-09-24T11:41:10.208Z,18.40
2022-09-24T11:43:49.349Z,18.41
2022-09-24T11:46:23.859Z,18.38
2022-09-24T11:48:58.900Z,18.32
2022-09-24T11:51:30.287Z,18.28
2022-09-24T11:53:59.548Z,18.24
2022-09-24T11:56:31.962Z,18.19
2022-09-24T11:59:01.065Z,18.14
2022-09-24T12:01:29.852Z,18.10
2022-09-24T12:03:58.411Z,18.08
2022-09-24T12:06:28.575Z,18.04
2022-09-24T12:08:57.654Z,18.00
2022-09-24T12:11:28.134Z,17.98
2022-09-24T12:13:59.085Z,17.96
2022-09-24T12:16:27.946Z,17.93
2022-09-24T12:18:57.493Z,17.92
2022-09-24T12:21:28.048Z,17.89
2022-09-24T12:24:02.643Z,17.87
2022-09-24T12:26:31.122Z,17.84
2022-09-24T12:29:34.003Z,17.84
2022-09-24T12:32:21.715Z,17.80
2022-09-24T12:34:52.065Z,17.80
2022-09-24T12:37:21.757Z,17.79
2022-09-24T12:39:51.278Z,17.77
2022-09-24T12:42:18.816Z,17.75
2022-09-24T12:44:49.866Z,17.74
2022-09-24T12:47:20.137Z,17.72
2022-09-24T12:49:50.195Z,17.70
2022-09-24T12:52:18.448Z,17.69
2022-09-24T12:54:45.997Z,17.68
2022-09-24T12:57:14.854Z,17.68
2022-09-24T12:59:51.266Z,17.67
2022-09-24T13:02:20.293Z,17.68
2022-09-24T13:04:52.135Z,17.67
2022-09-24T13:07:33.986Z,17.65
2022-09-24T13:10:23.898Z,17.67
2022-09-24T13:12:51.899Z,17.66
2022-09-24T13:15:28.329Z,17.65
2022-09-24T13:18:04.249Z,17.67
2022-09-24T13:20:32.142Z,17.63
2022-09-24T13:23:00.644Z,17.66
2022-09-24T13:25:28.690Z,17.64
2022-09-24T13:28:01.384Z,17.65
2022-09-24T13:30:38.093Z,17.64
2022-09-24T13:33:10.818Z,17.65
2022-09-24T13:35:43.373Z,17.65
2022-09-24T13:38:16.916Z,17.65
2022-09-24T13:40:46.257Z,17.63
2022-09-24T13:43:15.818Z,17.67
2022-09-24T13:45:45.114Z,17.74
2022-09-24T13:48:16.765Z,17.80
2022-09-24T13:50:45.609Z,17.89
2022-09-24T13:53:17.575Z,17.95
2022-09-24T13:55:45.842Z,18.00
2022-09-24T13:58:27.687Z,18.07
2022-09-24T14:00:57.413Z,18.19
2022-09-24T14:03:26.581Z,18.26
2022-09-24T14:05:54.161Z,18.25
2022-09-24T14:08:22.377Z,18.30
2022-09-24T14:10:50.977Z,18.37
2022-09-24T14:13:21.612Z,18.43
2022-09-24T14:15:57.433Z,18.44
2022-09-24T14:18:25.677Z,18.45
2022-09-24T14:20:56.491Z,18.46
2022-09-24T14:23:25.328Z,18.52
2022-09-24T14:25:52.887Z,18.55
2022-09-24T14:28:20.456Z,18.57
2022-09-24T14:30:52.203Z,18.55
2022-09-24T14:33:21.746Z,18.56
2022-09-24T14:35:50.007Z,18.63
2022-09-24T14:38:19.373Z,18.63
2022-09-24T14:40:48.361Z,18.65
2022-09-24T14:43:18.780Z,18.68
2022-09-24T14:45:46.936Z,18.67
2022-09-24T14:48:19.779Z,18.61
2022-09-24T14:50:48.704Z,18.60
2022-09-24T14:53:22.159Z,18.58
2022-09-24T14:55:49.810Z,18.52
2022-09-24T14:58:24.878Z,18.45
2022-09-24T15:00:55.390Z,18.40
2022-09-24T15:03:27.822Z,18.37
2022-09-24T15:06:08.236Z,18.33
2022-09-24T15:08:36.050Z,18.29
2022-09-24T15:11:15.302Z,18.25
2022-09-24T15:13:42.855Z,18.20
2022-09-24T15:16:19.377Z,18.19
2022-09-24T15:18:58.675Z,18.16
2022-09-24T15:21:27.856Z,18.12
2022-09-24T15:23:56.825Z,18.10
2022-09-24T15:26:26.482Z,18.08
2022-09-24T15:28:55.987Z,18.06
2022-09-24T15:31:24.157Z,18.03
2022-09-24T15:33:51.834Z,18.01
2022-09-24T15:36:21.105Z,18.00
2022-09-24T15:38:50.053Z,17.99
2022-09-24T15:41:17.724Z,17.95
2022-09-24T15:43:45.353Z,17.92
2022-09-24T15:46:13.035Z,17.90
2022-09-24T15:48:40.628Z,17.89
2022-09-24T15:51:14.977Z,17.87
2022-09-24T15:53:43.141Z,17.84
2022-09-24T15:56:12.252Z,17.86
2022-09-24T15:58:40.054Z,17.85
2022-09-24T16:01:07.843Z,17.85
2022-09-24T16:03:35.382Z,17.85
2022-09-24T16:06:03.311Z,17.90
2022-09-24T16:08:30.871Z,17.93
2022-09-24T16:10:58.724Z,17.99
2022-09-24T16:13:27.752Z,18.05
2022-09-24T16:15:55.384Z,18.13
2022-09-24T16:18:25.914Z,18.17
2022-09-24T16:20:53.541Z,18.24
2022-09-24T16:23:21.093Z,18.28
2022-09-24T16:25:55.824Z,18.32
2022-09-24T16:28:23.481Z,18.37
2022-09-24T16:30:52.488Z,18.42
2022-09-24T16:33:20.060Z,18.46
2022-09-24T16:35:47.757Z,18.49
2022-09-24T16:38:20.273Z,18.52
2022-09-24T16:40:51.964Z,18.53
2022-09-24T16:43:19.697Z,18.56
2022-09-24T16:45:47.333Z,18.57
2022-09-24T16:48:16.580Z,18.60
2022-09-24T16:50:44.173Z,18.64
2022-09-24T16:53:11.873Z,18.64
2022-09-24T16:55:39.481Z,18.68
2022-09-24T16:58:07.027Z,18.68
2022-09-24T17:00:34.612Z,18.72
2022-09-24T17:03:02.244Z,18.73
2022-09-24T17:05:34.087Z,18.68
2022-09-24T17:08:01.982Z,18.69
2022-09-24T17:10:51.604Z,18.70
2022-09-24T17:13:40.391Z,18.74
2022-09-24T17:16:28.378Z,18.75
2022-09-24T17:18:56.117Z,18.78
2022-09-24T17:21:25.001Z,18.78
2022-09-24T17:23:52.648Z,18.81
2022-09-24T17:26:21.285Z,18.80
2022-09-24T17:28:51.668Z,18.83
2022-09-24T17:31:21.258Z,18.83
2022-09-24T17:33:48.978Z,18.83
2022-09-24T17:36:16.657Z,18.84
2022-09-24T17:38:45.571Z,18.84
2022-09-24T17:41:13.808Z,18.85
2022-09-24T17:43:41.899Z,18.86
2022-09-24T17:46:14.141Z,18.87
2022-09-24T17:48:44.374Z,18.86
2022-09-24T17:51:12.946Z,18.88
2022-09-24T17:53:40.623Z,18.87
2022-09-24T17:56:11.326Z,18.89
2022-09-24T17:58:39.609Z,18.88
2022-09-24T18:01:08.261Z,18.89
2022-09-24T18:03:35.838Z,18.90
2022-09-24T18:06:03.641Z,18.90
2022-09-24T18:08:31.219Z,18.92
2022-09-24T18:11:02.741Z,18.94
2022-09-24T18:13:34.927Z,18.93
2022-09-24T18:16:04.135Z,18.94
2022-09-24T18:18:31.735Z,18.94
2022-09-24T18:21:01.076Z,18.96
2022-09-24T18:23:28.993Z,18.93
2022-09-24T18:25:57.144Z,18.95
2022-09-24T18:28:25.179Z,18.93
2022-09-24T18:31:06.020Z,18.95
2022-09-24T18:33:33.743Z,18.95
2022-09-24T18:36:05.138Z,18.95
2022-09-24T18:38:33.030Z,18.94
2022-09-24T18:41:01.707Z,18.96
2022-09-24T18:43:31.135Z,18.95
2022-09-24T18:46:05.121Z,18.97
2022-09-24T18:48:33.345Z,18.96
2022-09-24T18:51:01.157Z,18.95
2022-09-24T18:53:31.373Z,18.95
2022-09-24T18:55:59.773Z,18.97
2022-09-24T18:58:27.330Z,18.95
2022-09-24T19:00:59.098Z,18.95
2022-09-24T19:03:28.330Z,18.97
2022-09-24T19:05:56.950Z,18.97
2022-09-24T19:08:24.811Z,18.94
2022-09-24T19:10:53.253Z,18.93
2022-09-24T19:13:25.987Z,18.91
2022-09-24T19:15:54.009Z,18.86
2022-09-24T19:18:21.890Z,18.82
2022-09-24T19:20:50.926Z,18.81
2022-09-24T19:23:18.513Z,18.81
2022-09-24T19:25:46.102Z,18.79
2022-09-24T19:28:13.734Z,18.77
2022-09-24T19:30:42.005Z,18.78
2022-09-24T19:33:09.805Z,18.77
2022-09-24T19:35:37.649Z,18.80
2022-09-24T19:38:06.605Z,18.82
2022-09-24T19:40:34.274Z,18.84
2022-09-24T19:43:03.030Z,18.85
2022-09-24T19:45:31.213Z,18.90
2022-09-24T19:47:59.279Z,18.87
2022-09-24T19:50:26.965Z,18.88
2022-09-24T19:52:55.869Z,18.88
2022-09-24T19:55:28.520Z,18.87
2022-09-24T19:57:56.433Z,18.88
2022-09-24T20:00:24.986Z,18.88
2022-09-24T20:02:52.663Z,18.88
2022-09-24T20:05:20.409Z,18.91
2022-09-24T20:07:49.433Z,18.90
2022-09-24T20:10:16.973Z,18.90
2022-09-24T20:12:48.942Z,18.94
2022-09-24T20:15:16.586Z,18.93
2022-09-24T20:17:44.124Z,18.94
2022-09-24T20:20:11.658Z,18.95
2022-09-24T20:22:39.243Z,18.96
2022-09-24T20:25:07.797Z,18.99
2022-09-24T20:27:52.812Z,18.98
2022-09-24T20:30:23.827Z,18.98
2022-09-24T20:32:51.572Z,18.97
2022-09-24T20:35:19.201Z,18.98
2022-09-24T20:37:47.334Z,18.96
2022-09-24T20:40:15.120Z,18.97
2022-09-24T20:42:42.740Z,18.99
2022-09-24T20:45:10.546Z,18.96
2022-09-24T20:47:39.522Z,18.99
2022-09-24T20:50:08.317Z,18.99
2022-09-24T20:52:36.021Z,19.00
2022-09-24T20:55:03.656Z,19.00
2022-09-24T20:57:31.309Z,19.00
2022-09-24T20:59:58.889Z,19.02
2022-09-24T21:02:26.568Z,19.01
2022-09-24T21:04:55.623Z,18.98
2022-09-24T21:07:23.174Z,18.99
2022-09-24T21:09:50.766Z,19.00
2022-09-24T21:12:18.336Z,18.99
2022-09-24T21:14:45.891Z,18.99
2022-09-24T21:17:13.888Z,18.98
2022-09-24T21:19:41.630Z,19.00
2022-09-24T21:22:10.710Z,18.99
2022-09-24T21:24:39.497Z,18.99
2022-09-24T21:27:07.852Z,18.96
2022-09-24T21:29:35.409Z,18.97
2022-09-24T21:32:03.530Z,18.96
2022-09-24T21:34:31.170Z,19.00
2022-09-24T21:36:58.728Z,19.01
2022-09-24T21:39:28.410Z,18.98
2022-09-24T21:41:59.175Z,18.97
2022-09-24T21:44:31.910Z,18.99
2022-09-24T21:46:59.599Z,18.98
2022-09-24T21:49:27.470Z,19.01
2022-09-24T21:51:57.576Z,19.03
2022-09-24T21:54:25.338Z,19.00
2022-09-24T21:56:55.321Z,18.97
2022-09-24T21:59:40.560Z,18.98
2022-09-24T22:02:08.580Z,18.98
2022-09-24T22:04:36.301Z,18.96
2022-09-24T22:07:03.906Z,18.98
2022-09-24T22:09:32.148Z,18.97
2022-09-24T22:12:01.665Z,18.96
2022-09-24T22:14:29.392Z,18.99
2022-09-24T22:16:57.230Z,18.99
2022-09-24T22:19:24.836Z,19.00
2022-09-24T22:21:52.769Z,18.98
2022-09-24T22:24:20.376Z,18.97
2022-09-24T22:26:48.265Z,18.94
2022-09-24T22:29:17.244Z,18.90
2022-09-24T22:31:44.842Z,18.85
2022-09-24T22:34:29.790Z,18.82
2022-09-24T22:36:57.327Z,18.78
2022-09-24T22:39:24.986Z,18.72
2022-09-24T22:41:52.644Z,18.67
2022-09-24T22:44:21.529Z,18.61
2022-09-24T22:46:49.057Z,18.58
2022-09-24T22:49:16.705Z,18.53
2022-09-24T22:51:44.474Z,18.50
2022-09-24T22:54:12.784Z,18.44
2022-09-24T22:56:40.457Z,18.39
2022-09-24T22:59:08.003Z,18.36
2022-09-24T23:01:40.295Z,18.32
2022-09-24T23:04:08.184Z,18.30
2022-09-24T23:06:35.711Z,18.28
2022-09-24T23:09:03.290Z,18.26
2022-09-24T23:11:31.516Z,18.23
2022-09-24T23:14:00.048Z,18.21
2022-09-24T23:16:28.601Z,18.18
2022-09-24T23:18:58.516Z,18.16
2022-09-24T23:21:27.634Z,18.16
2022-09-24T23:23:55.479Z,18.13
2022-09-24T23:26:23.807Z,18.12
2022-09-24T23:28:52.669Z,18.12
2022-09-24T23:31:21.910Z,18.10
2022-09-24T23:33:49.633Z,18.08
2022-09-24T23:36:18.730Z,18.06
2022-09-24T23:38:46.314Z,18.06
2022-09-24T23:41:14.346Z,18.04
2022-09-24T23:43:42.281Z,18.02
2022-09-24T23:46:10.090Z,18.02
2022-09-24T23:48:38.038Z,18.00
2022-09-24T23:51:05.657Z,17.99
2022-09-24T23:53:34.842Z,17.97
2022-09-24T23:56:03.080Z,17.96
2022-09-24T23:58:30.591Z,17.96
